Time;durP1;ratioP1;P1;durP2;ratioP2;P2;SDS_P1;SDS_P2;PMS_P1;PMS_P2;Temp;Humidity;BMP_temperature;BMP_pressure;BME280_temperature;BME280_humidity;BME280_pressure;Samples;Min_cycle;Max_cycle;Signal;HPM_P1;HPM_P2
2022/12/22 03:27:02;;;;;;;53.80;20.63;;;;;;;;;;5015906;28;20050;-77
2022/12/22 03:29:28;;;;;;;59.53;25.00;;;;;;;;;;5029190;28;20041;-77
2022/12/22 03:31:54;;;;;;;61.05;23.35;;;;;;;;;;5031685;28;20045;-77
2022/12/22 03:34:20;;;;;;;55.13;21.08;;;;;;;;;;5013753;28;20479;-77
2022/12/22 03:36:46;;;;;;;60.28;21.63;;;;;;;;;;5017326;28;20038;-77
2022/12/22 03:39:12;;;;;;;58.38;22.58;;;;;;;;;;5029923;28;20037;-76
2022/12/22 03:47:07;;;;;;;55.30;22.17;;;;;;;;;;5031712;28;20050;-77
2022/12/22 03:49:33;;;;;;;54.30;21.98;;;;;;;;;;5023461;28;20040;-77
2022/12/22 03:51:59;;;;;;;54.50;23.10;;;;;;;;;;5024291;28;20039;-77
2022/12/22 03:54:25;;;;;;;52.85;21.02;;;;;;;;;;5028484;28;20124;-77
2022/12/22 03:56:52;;;;;;;58.25;23.17;;;;;;;;;;5023121;28;20416;-77
2022/12/22 03:59:19;;;;;;;55.40;21.98;;;;;;;;;;5016731;28;20462;-77
2022/12/22 04:01:46;;;;;;;53.83;20.67;;;;;;;;;;5016376;28;20050;-77
2022/12/22 04:04:13;;;;;;;51.78;20.35;;;;;;;;;;5028359;28;20052;-77
2022/12/22 04:06:40;;;;;;;50.60;20.45;;;;;;;;;;5027229;28;20045;-77
2022/12/22 04:09:06;;;;;;;50.03;21.00;;;;;;;;;;5032526;28;20038;-77
2022/12/22 04:14:16;;;;;;;50.05;20.10;;;;;;;;;;5013887;28;20061;-77
2022/12/22 04:16:43;;;;;;;51.42;19.85;;;;;;;;;;5014415;28;20054;-77
2022/12/22 04:19:09;;;;;;;47.72;19.95;;;;;;;;;;5031643;28;20041;-77
2022/12/22 04:21:35;;;;;;;56.08;20.63;;;;;;;;;;5017615;28;20045;-77
2022/12/22 04:24:01;;;;;;;43.90;19.27;;;;;;;;;;5029036;28;20482;-77
2022/12/22 04:26:28;;;;;;;42.03;18.88;;;;;;;;;;5020697;28;20192;-77
2022/12/22 04:28:54;;;;;;;46.55;19.77;;;;;;;;;;5017742;28;20042;-77
2022/12/22 04:31:20;;;;;;;48.55;19.60;;;;;;;;;;5011205;28;20053;-77
2022/12/22 04:33:47;;;;;;;47.05;19.55;;;;;;;;;;5026037;28;20045;-77
2022/12/22 04:36:13;;;;;;;50.47;20.13;;;;;;;;;;5023533;28;20042;-77
2022/12/22 04:38:39;;;;;;;48.53;20.60;;;;;;;;;;5020565;28;20045;-76
2022/12/22 04:41:05;;;;;;;53.47;20.38;;;;;;;;;;5020815;28;20053;-77
2022/12/22 04:43:31;;;;;;;47.58;18.65;;;;;;;;;;5035345;28;20128;-77
2022/12/22 04:45:57;;;;;;;54.33;19.38;;;;;;;;;;5031440;28;20125;-77
2022/12/22 04:48:24;;;;;;;49.15;20.58;;;;;;;;;;5018033;28;20049;-77
2022/12/22 04:50:51;;;;;;;49.40;19.70;;;;;;;;;;5022448;28;20038;-77
2022/12/22 04:53:17;;;;;;;59.70;22.17;;;;;;;;;;5014531;28;20125;-77
2022/12/22 04:55:47;;;;;;;54.42;20.48;;;;;;;;;;5015364;28;20045;-77
2022/12/22 04:58:13;;;;;;;62.25;21.10;;;;;;;;;;5021270;28;20476;-77
2022/12/22 05:00:39;;;;;;;57.03;19.90;;;;;;;;;;5037531;28;20112;-77
2022/12/22 05:03:06;;;;;;;44.58;18.75;;;;;;;;;;5017139;28;20120;-77
2022/12/22 05:05:33;;;;;;;51.95;18.52;;;;;;;;;;5025616;28;20037;-77
2022/12/22 05:07:59;;;;;;;55.78;19.08;;;;;;;;;;5002317;28;20133;-77
2022/12/22 05:10:25;;;;;;;49.55;19.08;;;;;;;;;;5017015;28;20052;-77
2022/12/22 05:12:54;;;;;;;51.17;18.85;;;;;;;;;;5041250;28;20038;-78
2022/12/22 05:15:20;;;;;;;50.83;18.80;;;;;;;;;;5029978;28;20033;-77
2022/12/22 05:17:47;;;;;;;57.08;19.17;;;;;;;;;;5017308;28;20227;-77
2022/12/22 05:20:13;;;;;;;55.67;20.15;;;;;;;;;;5017747;28;20172;-76
2022/12/22 05:22:39;;;;;;;49.88;19.15;;;;;;;;;;5014217;28;20082;-77
2022/12/22 05:25:05;;;;;;;50.90;18.05;;;;;;;;;;5029198;28;20398;-77
2022/12/22 05:27:31;;;;;;;48.95;16.65;;;;;;;;;;5004475;28;20037;-77
2022/12/22 05:30:00;;;;;;;40.00;16.85;;;;;;;;;;5024862;28;20057;-77
2022/12/22 05:32:26;;;;;;;41.13;14.90;;;;;;;;;;5008276;28;20037;-77
2022/12/22 05:34:52;;;;;;;35.92;14.80;;;;;;;;;;5017086;28;20366;-77
2022/12/22 05:37:18;;;;;;;39.92;14.18;;;;;;;;;;5027907;28;20050;-77
2022/12/22 05:39:44;;;;;;;39.88;14.85;;;;;;;;;;5021311;28;20045;-77
2022/12/22 05:42:10;;;;;;;39.22;14.15;;;;;;;;;;5028122;28;20375;-77
2022/12/22 05:44:36;;;;;;;41.22;15.38;;;;;;;;;;5007223;28;20852;-77
2022/12/22 05:47:02;;;;;;;48.38;15.43;;;;;;;;;;5000140;28;20046;-77
2022/12/22 05:49:28;;;;;;;39.58;14.65;;;;;;;;;;5015559;28;20049;-77
2022/12/22 05:51:55;;;;;;;38.67;13.63;;;;;;;;;;5033245;28;20107;-77
2022/12/22 05:54:21;;;;;;;39.97;15.45;;;;;;;;;;5015412;28;20050;-77
2022/12/22 05:56:47;;;;;;;47.63;14.55;;;;;;;;;;5019786;28;20152;-77
2022/12/22 05:59:13;;;;;;;47.55;15.65;;;;;;;;;;5033993;28;20509;-77
2022/12/22 06:01:39;;;;;;;48.85;14.45;;;;;;;;;;5033619;28;20490;-77
2022/12/22 06:04:05;;;;;;;68.72;17.77;;;;;;;;;;5033987;28;20046;-77
2022/12/22 06:06:31;;;;;;;65.28;16.25;;;;;;;;;;5010597;28;20080;-77
2022/12/22 06:08:57;;;;;;;69.82;16.38;;;;;;;;;;5029469;28;20081;-77
2022/12/22 06:11:23;;;;;;;79.13;16.92;;;;;;;;;;5031996;28;20092;-77
2022/12/22 06:13:49;;;;;;;142.23;18.20;;;;;;;;;;5004388;28;20058;-77
2022/12/22 06:16:16;;;;;;;152.98;19.25;;;;;;;;;;5039829;28;20052;-77
2022/12/22 06:18:44;;;;;;;136.50;17.52;;;;;;;;;;5016487;28;20080;-77
2022/12/22 06:21:19;;;;;;;137.02;18.20;;;;;;;;;;5017037;28;20080;-77
2022/12/22 06:23:45;;;;;;;140.23;17.90;;;;;;;;;;5027851;28;20052;-77
2022/12/22 06:26:12;;;;;;;165.65;16.80;;;;;;;;;;5009869;28;20073;-77
2022/12/22 06:28:38;;;;;;;86.78;14.57;;;;;;;;;;5031927;28;20092;-77
2022/12/22 06:31:04;;;;;;;171.07;18.50;;;;;;;;;;5001887;28;20107;-77
2022/12/22 06:33:30;;;;;;;87.50;16.85;;;;;;;;;;5020691;28;20755;-77
2022/12/22 06:35:56;;;;;;;179.43;19.65;;;;;;;;;;5007025;28;20439;-77
2022/12/22 06:38:22;;;;;;;188.80;21.20;;;;;;;;;;5001525;28;20057;-77
2022/12/22 06:40:48;;;;;;;104.75;17.25;;;;;;;;;;5032991;28;20037;-77
2022/12/22 06:43:14;;;;;;;115.03;17.60;;;;;;;;;;5021223;28;20133;-76
2022/12/22 06:45:41;;;;;;;66.57;15.98;;;;;;;;;;5030575;28;20038;-77
2022/12/22 06:48:08;;;;;;;69.10;15.40;;;;;;;;;;5033819;28;20041;-77
2022/12/22 06:50:34;;;;;;;46.28;12.90;;;;;;;;;;5031746;28;20064;-77
2022/12/22 06:53:00;;;;;;;60.90;14.32;;;;;;;;;;5031894;28;20092;-77
2022/12/22 06:55:26;;;;;;;60.08;12.63;;;;;;;;;;5033829;28;20053;-76
2022/12/22 06:57:52;;;;;;;44.03;10.35;;;;;;;;;;5032906;28;20050;-76
2022/12/22 07:00:18;;;;;;;57.05;10.90;;;;;;;;;;5033867;28;20500;-76
2022/12/22 07:02:44;;;;;;;64.22;13.00;;;;;;;;;;5050118;28;20045;-77
2022/12/22 07:05:10;;;;;;;61.38;11.07;;;;;;;;;;5021885;28;20095;-77
2022/12/22 07:07:37;;;;;;;63.33;10.18;;;;;;;;;;5015402;28;20041;-77
2022/12/22 07:10:03;;;;;;;66.38;10.25;;;;;;;;;;5014693;28;20393;-77
2022/12/22 07:12:29;;;;;;;115.50;12.90;;;;;;;;;;5014892;28;20045;-77
2022/12/22 07:14:55;;;;;;;96.78;10.95;;;;;;;;;;5014614;28;20054;-77
2022/12/22 07:17:22;;;;;;;93.93;11.57;;;;;;;;;;5023040;28;20049;-77
2022/12/22 07:19:48;;;;;;;112.97;12.35;;;;;;;;;;5004337;28;20116;-77
2022/12/22 07:22:14;;;;;;;65.90;9.73;;;;;;;;;;5008456;28;20461;-77
2022/12/22 07:24:40;;;;;;;49.40;9.95;;;;;;;;;;5037102;28;20049;-77
2022/12/22 07:27:06;;;;;;;77.65;11.30;;;;;;;;;;5035893;28;20045;-77
2022/12/22 07:29:32;;;;;;;83.30;12.00;;;;;;;;;;5032002;28;20064;-77
2022/12/22 07:31:58;;;;;;;67.85;10.57;;;;;;;;;;5015436;28;20038;-76
2022/12/22 07:34:24;;;;;;;78.88;13.27;;;;;;;;;;5033019;28;20115;-77
2022/12/22 07:36:50;;;;;;;65.32;12.35;;;;;;;;;;5015366;28;20041;-78
2022/12/22 07:39:16;;;;;;;48.90;11.10;;;;;;;;;;5031048;28;20038;-77
2022/12/22 07:44:26;;;;;;;42.88;10.30;;;;;;;;;;5025054;28;20069;-77
2022/12/22 07:46:52;;;;;;;42.70;10.25;;;;;;;;;;5014633;28;20038;-77
2022/12/22 07:52:03;;;;;;;33.50;9.55;;;;;;;;;;5016328;28;20529;-77
2022/12/22 07:54:29;;;;;;;29.05;9.35;;;;;;;;;;5020030;28;20097;-78
2022/12/22 07:56:55;;;;;;;27.02;8.90;;;;;;;;;;5034378;28;20497;-77
2022/12/22 07:59:21;;;;;;;29.30;9.20;;;;;;;;;;5017859;28;20517;-79
2022/12/22 08:01:48;;;;;;;25.48;8.75;;;;;;;;;;5000225;28;20490;-78
2022/12/22 08:04:14;;;;;;;35.28;9.15;;;;;;;;;;5026081;28;20056;-77
2022/12/22 08:06:42;;;;;;;39.53;9.13;;;;;;;;;;5029773;28;20053;-78
2022/12/22 08:09:09;;;;;;;34.55;9.18;;;;;;;;;;5026916;28;20045;-78
2022/12/22 08:11:35;;;;;;;29.05;8.98;;;;;;;;;;5033842;28;20061;-77
2022/12/22 08:14:01;;;;;;;22.85;8.73;;;;;;;;;;5029693;28;20050;-77
2022/12/22 08:16:27;;;;;;;40.67;10.27;;;;;;;;;;5020561;28;20077;-78
2022/12/22 08:18:53;;;;;;;24.40;8.88;;;;;;;;;;5024689;28;20042;-76
2022/12/22 08:21:19;;;;;;;17.95;8.43;;;;;;;;;;5023098;28;20038;-80
2022/12/22 08:23:46;;;;;;;15.68;8.18;;;;;;;;;;5017410;28;20057;-79
2022/12/22 08:26:23;;;;;;;17.48;7.53;;;;;;;;;;5020433;28;21154;-79
2022/12/22 08:28:54;;;;;;;17.52;8.82;;;;;;;;;;5033038;28;20120;-79
2022/12/22 08:31:20;;;;;;;15.52;7.85;;;;;;;;;;5033304;28;20041;-79
2022/12/22 08:33:47;;;;;;;16.48;8.52;;;;;;;;;;5019474;28;20038;-79
2022/12/22 08:36:13;;;;;;;16.05;8.15;;;;;;;;;;5037279;28;20370;-79
2022/12/22 08:38:40;;;;;;;15.95;8.40;;;;;;;;;;5032065;28;20379;-79
2022/12/22 08:41:08;;;;;;;14.25;7.68;;;;;;;;;;5030929;28;20049;-79
2022/12/22 08:43:34;;;;;;;12.38;7.75;;;;;;;;;;5038102;28;20052;-79
2022/12/22 08:46:00;;;;;;;19.20;9.23;;;;;;;;;;5037168;28;20048;-79
2022/12/22 08:48:26;;;;;;;17.65;8.07;;;;;;;;;;5036654;28;20552;-79
2022/12/22 08:50:52;;;;;;;15.93;7.05;;;;;;;;;;5035759;28;20045;-79
2022/12/22 08:53:18;;;;;;;14.48;7.40;;;;;;;;;;5036885;28;20053;-79
2022/12/22 08:55:54;;;;;;;19.27;8.10;;;;;;;;;;5036621;28;20073;-79
2022/12/22 08:58:21;;;;;;;16.77;8.95;;;;;;;;;;5036546;28;20077;-79
2022/12/22 09:00:47;;;;;;;19.48;10.15;;;;;;;;;;5037053;28;20088;-79
2022/12/22 09:03:13;;;;;;;17.63;10.30;;;;;;;;;;5037648;28;20065;-79
2022/12/22 09:05:40;;;;;;;35.28;22.25;;;;;;;;;;5036905;28;20193;-79
2022/12/22 09:08:07;;;;;;;22.30;11.55;;;;;;;;;;5020653;28;20113;-79
2022/12/22 09:10:33;;;;;;;19.80;9.15;;;;;;;;;;5017637;28;20069;-79
2022/12/22 09:12:59;;;;;;;15.23;7.85;;;;;;;;;;5016910;28;20046;-78
2022/12/22 09:15:25;;;;;;;19.67;9.45;;;;;;;;;;5017456;28;20092;-78
2022/12/22 09:17:51;;;;;;;18.92;9.13;;;;;;;;;;5009676;28;20053;-78
2022/12/22 09:20:17;;;;;;;21.17;8.15;;;;;;;;;;5035828;28;20037;-78
2022/12/22 09:22:43;;;;;;;18.40;8.95;;;;;;;;;;5029058;28;20057;-78
2022/12/22 09:25:09;;;;;;;18.90;8.07;;;;;;;;;;5036437;28;20042;-79
2022/12/22 09:27:35;;;;;;;17.35;8.32;;;;;;;;;;5036740;28;20045;-79
2022/12/22 09:30:02;;;;;;;16.15;8.02;;;;;;;;;;5036902;28;20048;-79
2022/12/22 09:32:28;;;;;;;17.25;8.10;;;;;;;;;;5024805;28;20125;-79
2022/12/22 09:34:54;;;;;;;16.48;8.40;;;;;;;;;;5016723;28;20413;-79
2022/12/22 09:37:20;;;;;;;15.85;7.57;;;;;;;;;;5036010;28;20172;-79
2022/12/22 09:39:46;;;;;;;13.73;8.40;;;;;;;;;;5023594;28;20042;-77
2022/12/22 09:42:14;;;;;;;13.32;7.65;;;;;;;;;;5031586;28;20051;-78
2022/12/22 09:44:43;;;;;;;13.65;7.95;;;;;;;;;;5016856;28;20073;-78
2022/12/22 09:47:29;;;;;;;12.73;6.82;;;;;;;;;;5028732;28;20948;-77
2022/12/22 09:49:56;;;;;;;13.00;6.95;;;;;;;;;;5020486;28;20081;-78
2022/12/22 09:52:34;;;;;;;11.63;7.18;;;;;;;;;;5027295;28;20461;-78
2022/12/22 09:55:01;;;;;;;13.70;7.25;;;;;;;;;;5039069;28;20048;-78
2022/12/22 09:57:29;;;;;;;13.50;6.00;;;;;;;;;;5035169;28;20120;-78
2022/12/22 09:59:56;;;;;;;13.10;5.25;;;;;;;;;;5034662;28;20459;-78
2022/12/22 10:02:29;;;;;;;15.73;5.53;;;;;;;;;;5034764;28;20059;-78
2022/12/22 10:05:17;;;;;;;13.52;5.43;;;;;;;;;;5034875;28;20073;-78
2022/12/22 10:07:43;;;;;;;8.27;4.50;;;;;;;;;;5034265;28;20045;-78
2022/12/22 10:10:19;;;;;;;10.93;5.40;;;;;;;;;;5033994;28;20093;-78
2022/12/22 10:12:45;;;;;;;11.63;5.05;;;;;;;;;;5034379;28;20140;-78
2022/12/22 10:15:12;;;;;;;9.50;5.10;;;;;;;;;;5034782;28;20136;-78
2022/12/22 10:17:41;;;;;;;11.57;5.13;;;;;;;;;;5031019;28;20053;-78
2022/12/22 10:20:19;;;;;;;10.63;5.00;;;;;;;;;;5018865;28;20124;-78
2022/12/22 10:22:50;;;;;;;12.23;5.18;;;;;;;;;;5033146;28;20069;-78
2022/12/22 10:25:28;;;;;;;8.18;4.78;;;;;;;;;;5035147;28;20042;-79
2022/12/22 10:27:56;;;;;;;13.43;5.10;;;;;;;;;;5027016;28;20045;-78
2022/12/22 10:30:24;;;;;;;11.10;4.60;;;;;;;;;;5034425;28;20060;-78
2022/12/22 10:33:07;;;;;;;9.85;4.15;;;;;;;;;;5033848;28;20038;-78
2022/12/22 10:35:42;;;;;;;11.90;4.75;;;;;;;;;;5014133;28;20046;-78
2022/12/22 10:38:18;;;;;;;8.13;3.90;;;;;;;;;;5023688;28;20073;-78
2022/12/22 10:40:45;;;;;;;11.10;4.35;;;;;;;;;;5034299;28;20126;-78
2022/12/22 10:43:18;;;;;;;10.05;4.40;;;;;;;;;;5033772;28;20146;-78
2022/12/22 10:45:47;;;;;;;10.57;4.35;;;;;;;;;;5031756;28;20054;-78
2022/12/22 10:48:13;;;;;;;11.68;4.03;;;;;;;;;;5015910;28;20053;-78
2022/12/22 10:50:46;;;;;;;9.55;3.63;;;;;;;;;;5033742;28;20115;-78
2022/12/22 10:53:12;;;;;;;12.10;3.70;;;;;;;;;;5033284;28;20073;-78
2022/12/22 10:55:38;;;;;;;11.20;4.00;;;;;;;;;;5015648;28;20046;-77
2022/12/22 10:58:14;;;;;;;14.63;4.00;;;;;;;;;;5034276;28;20045;-78
2022/12/22 11:00:41;;;;;;;13.32;4.03;;;;;;;;;;5034769;28;20045;-79
2022/12/22 11:03:10;;;;;;;11.32;3.13;;;;;;;;;;5030164;28;20166;-79
2022/12/22 11:05:37;;;;;;;8.52;2.90;;;;;;;;;;5031433;28;20044;-78
2022/12/22 11:08:15;;;;;;;12.77;3.20;;;;;;;;;;5015338;28;20049;-80
2022/12/22 11:10:48;;;;;;;8.20;3.15;;;;;;;;;;5036773;28;20045;-80
2022/12/22 11:13:24;;;;;;;8.90;3.00;;;;;;;;;;5010332;28;20052;-80
2022/12/22 11:15:58;;;;;;;8.87;3.07;;;;;;;;;;5024229;28;20046;-78
2022/12/22 11:18:24;;;;;;;11.70;3.05;;;;;;;;;;5019349;28;20045;-78
2022/12/22 11:20:53;;;;;;;11.18;3.50;;;;;;;;;;5036583;28;20100;-78
2022/12/22 11:23:19;;;;;;;9.30;3.13;;;;;;;;;;5036644;28;20098;-79
2022/12/22 11:26:24;;;;;;;11.40;3.25;;;;;;;;;;5034015;28;20517;-79
2022/12/22 11:28:59;;;;;;;14.50;2.97;;;;;;;;;;4968431;28;20054;-79
2022/12/22 11:31:31;;;;;;;7.80;2.88;;;;;;;;;;4955571;29;20054;-79
2022/12/22 11:34:03;;;;;;;10.57;2.92;;;;;;;;;;4954270;29;20083;-78
2022/12/22 11:36:29;;;;;;;8.77;3.20;;;;;;;;;;4956750;28;20090;-78
2022/12/22 11:39:00;;;;;;;11.75;3.35;;;;;;;;;;4972741;28;20414;-78
2022/12/22 11:41:49;;;;;;;9.20;3.60;;;;;;;;;;4957036;28;20054;-78
2022/12/22 11:44:21;;;;;;;11.77;3.67;;;;;;;;;;4955444;28;20054;-77
2022/12/22 11:47:00;;;;;;;11.02;2.95;;;;;;;;;;4957384;29;20052;-79
2022/12/22 11:49:31;;;;;;;14.13;3.55;;;;;;;;;;4958254;28;20043;-81
2022/12/22 11:51:57;;;;;;;13.98;3.50;;;;;;;;;;4956835;29;20107;-77
2022/12/22 11:54:46;;;;;;;10.77;3.40;;;;;;;;;;4956227;29;20043;-77
2022/12/22 11:57:19;;;;;;;12.15;3.38;;;;;;;;;;4959559;28;20051;-77
2022/12/22 12:00:06;;;;;;;8.77;3.08;;;;;;;;;;4995210;28;20449;-77
2022/12/22 12:02:41;;;;;;;16.10;3.97;;;;;;;;;;5012242;28;20054;-77
2022/12/22 12:05:14;;;;;;;10.45;3.85;;;;;;;;;;5002338;28;20066;-77
2022/12/22 12:07:45;;;;;;;14.93;3.70;;;;;;;;;;5016084;28;20048;-77
2022/12/22 12:10:23;;;;;;;11.88;3.10;;;;;;;;;;5032526;28;20076;-77
2022/12/22 12:12:53;;;;;;;7.72;2.90;;;;;;;;;;5036533;28;20077;-77
2022/12/22 12:15:25;;;;;;;10.93;3.17;;;;;;;;;;4997808;28;20125;-78
2022/12/22 12:17:51;;;;;;;10.10;3.25;;;;;;;;;;5016355;28;20133;-78
2022/12/22 12:20:28;;;;;;;12.55;2.95;;;;;;;;;;5017466;28;20128;-78
2022/12/22 12:23:01;;;;;;;15.23;3.55;;;;;;;;;;5004065;28;20038;-78
2022/12/22 12:25:56;;;;;;;10.20;3.33;;;;;;;;;;5016859;28;20042;-78
2022/12/22 12:28:31;;;;;;;13.98;3.38;;;;;;;;;;4990808;28;20490;-78
2022/12/22 12:30:59;;;;;;;10.75;3.53;;;;;;;;;;5016595;28;20112;-78
2022/12/22 12:33:31;;;;;;;13.02;3.50;;;;;;;;;;5016408;28;20080;-78
2022/12/22 12:36:03;;;;;;;12.25;4.32;;;;;;;;;;5016434;28;20463;-77
2022/12/22 12:38:34;;;;;;;9.70;3.97;;;;;;;;;;5016392;28;20121;-77
2022/12/22 12:41:12;;;;;;;7.18;2.67;;;;;;;;;;5016339;28;20038;-77
2022/12/22 12:43:39;;;;;;;10.10;3.15;;;;;;;;;;4998444;28;20057;-77
2022/12/22 12:46:24;;;;;;;12.80;2.97;;;;;;;;;;5016206;28;20089;-77
2022/12/22 12:48:50;;;;;;;8.75;2.88;;;;;;;;;;5011027;28;20038;-77
2022/12/22 12:51:35;;;;;;;13.85;3.97;;;;;;;;;;5016962;28;20068;-77
2022/12/22 12:54:19;;;;;;;12.88;2.75;;;;;;;;;;5035876;28;20045;-77
2022/12/22 12:57:15;;;;;;;11.80;3.35;;;;;;;;;;5017239;28;20038;-77
2022/12/22 12:59:41;;;;;;;11.45;3.05;;;;;;;;;;4987466;28;20404;-78
2022/12/22 13:02:25;;;;;;;12.77;3.28;;;;;;;;;;5016210;28;20096;-78
2022/12/22 13:05:10;;;;;;;13.25;2.90;;;;;;;;;;5016324;28;20046;-78
2022/12/22 13:07:55;;;;;;;11.50;3.30;;;;;;;;;;5005167;28;20101;-78
2022/12/22 13:10:22;;;;;;;10.65;2.65;;;;;;;;;;5012044;28;20037;-78
2022/12/22 13:12:50;;;;;;;12.10;3.30;;;;;;;;;;5005715;28;20074;-78
2022/12/22 13:15:31;;;;;;;11.93;2.92;;;;;;;;;;5015275;28;20049;-78
2022/12/22 13:17:59;;;;;;;14.88;3.20;;;;;;;;;;5032727;28;20053;-78
2022/12/22 13:20:34;;;;;;;10.18;3.08;;;;;;;;;;5028505;28;20042;-78
2022/12/22 13:23:00;;;;;;;12.52;3.55;;;;;;;;;;5010732;28;20045;-78
2022/12/22 13:25:35;;;;;;;13.10;3.40;;;;;;;;;;4985402;28;20096;-79
2022/12/22 13:28:03;;;;;;;13.25;4.18;;;;;;;;;;5018277;28;20079;-77
2022/12/22 13:30:30;;;;;;;12.60;3.35;;;;;;;;;;5035030;28;20045;-77
2022/12/22 13:33:00;;;;;;;9.90;3.03;;;;;;;;;;5011044;28;20049;-77
2022/12/22 13:35:29;;;;;;;16.02;3.40;;;;;;;;;;5035280;28;20083;-77
2022/12/22 13:37:56;;;;;;;14.30;3.35;;;;;;;;;;5017627;28;20132;-77
2022/12/22 13:40:23;;;;;;;11.10;3.60;;;;;;;;;;5017467;28;20104;-77
2022/12/22 13:42:52;;;;;;;9.35;3.85;;;;;;;;;;5017176;28;20054;-77
2022/12/22 13:45:34;;;;;;;10.70;3.30;;;;;;;;;;5034791;28;20490;-78
2022/12/22 13:48:02;;;;;;;9.85;3.30;;;;;;;;;;5017353;28;20657;-78
2022/12/22 13:50:30;;;;;;;9.23;3.28;;;;;;;;;;5016771;28;20381;-78
2022/12/22 13:52:57;;;;;;;14.90;3.28;;;;;;;;;;5016865;28;20555;-78
2022/12/22 13:55:25;;;;;;;11.43;3.28;;;;;;;;;;5035008;28;20037;-77
2022/12/22 13:57:52;;;;;;;13.75;3.20;;;;;;;;;;5034831;28;20037;-77
2022/12/22 14:00:23;;;;;;;8.25;2.92;;;;;;;;;;5034596;28;20493;-77
2022/12/22 14:02:49;;;;;;;15.57;3.50;;;;;;;;;;5034271;28;20504;-79
2022/12/22 14:05:15;;;;;;;14.73;3.00;;;;;;;;;;5017060;28;20057;-77
2022/12/22 14:08:08;;;;;;;9.77;3.20;;;;;;;;;;5030382;28;20041;-77
2022/12/22 14:10:39;;;;;;;13.02;4.10;;;;;;;;;;5031054;28;20168;-77
2022/12/22 14:13:07;;;;;;;16.77;4.60;;;;;;;;;;5022137;28;20041;-77
2022/12/22 14:15:33;;;;;;;14.38;4.45;;;;;;;;;;5031915;28;20044;-76
2022/12/22 14:17:59;;;;;;;17.48;6.07;;;;;;;;;;5033653;28;20180;-76
2022/12/22 14:20:36;;;;;;;13.95;5.55;;;;;;;;;;5032445;28;20049;-76
2022/12/22 14:23:07;;;;;;;14.77;4.63;;;;;;;;;;5016586;28;20041;-77
2022/12/22 14:25:36;;;;;;;16.67;3.80;;;;;;;;;;5017751;28;20045;-77
2022/12/22 14:28:03;;;;;;;14.23;4.28;;;;;;;;;;5017095;28;20041;-77
2022/12/22 14:30:33;;;;;;;13.20;4.15;;;;;;;;;;5027949;28;20042;-76
2022/12/22 14:33:13;;;;;;;14.02;3.90;;;;;;;;;;5018124;28;20037;-77
2022/12/22 14:35:39;;;;;;;10.43;3.28;;;;;;;;;;5037849;28;20056;-76
2022/12/22 14:38:24;;;;;;;14.32;3.40;;;;;;;;;;5035043;28;20045;-82
2022/12/22 14:40:51;;;;;;;13.15;3.90;;;;;;;;;;5044684;28;20056;-82
2022/12/22 14:43:17;;;;;;;10.20;3.30;;;;;;;;;;5042770;28;20045;-77
2022/12/22 14:45:44;;;;;;;11.93;3.78;;;;;;;;;;5024967;28;20768;-77
2022/12/22 14:48:18;;;;;;;11.85;3.30;;;;;;;;;;5013899;28;20053;-77
2022/12/22 14:50:51;;;;;;;10.65;3.10;;;;;;;;;;5016025;28;20041;-77
2022/12/22 14:53:25;;;;;;;10.77;2.97;;;;;;;;;;5012639;28;20034;-77
2022/12/22 14:55:51;;;;;;;9.82;3.13;;;;;;;;;;5014954;28;20556;-77
2022/12/22 14:58:19;;;;;;;7.43;3.20;;;;;;;;;;5015847;28;20124;-77
2022/12/22 15:00:49;;;;;;;12.18;2.83;;;;;;;;;;5033331;28;20046;-77
2022/12/22 15:03:24;;;;;;;10.90;3.35;;;;;;;;;;5031325;28;20045;-77
2022/12/22 15:05:51;;;;;;;8.13;2.90;;;;;;;;;;5015526;28;20038;-77
2022/12/22 15:08:35;;;;;;;9.68;3.38;;;;;;;;;;5034291;28;20048;-80
2022/12/22 15:11:01;;;;;;;11.25;3.35;;;;;;;;;;5028445;28;20056;-82
2022/12/22 15:13:29;;;;;;;11.07;4.50;;;;;;;;;;5013786;28;20064;-78
2022/12/22 15:15:55;;;;;;;8.60;3.33;;;;;;;;;;5031842;28;20060;-78
2022/12/22 15:18:24;;;;;;;10.35;3.08;;;;;;;;;;5003002;28;20128;-77
2022/12/22 15:20:50;;;;;;;14.65;3.97;;;;;;;;;;5001405;28;20521;-77
2022/12/22 15:23:16;;;;;;;8.00;3.72;;;;;;;;;;5002452;28;20124;-77
2022/12/22 15:25:43;;;;;;;8.88;3.40;;;;;;;;;;5024172;28;20076;-77
2022/12/22 15:28:09;;;;;;;8.98;3.90;;;;;;;;;;5006569;28;20052;-76
2022/12/22 15:30:35;;;;;;;11.35;4.45;;;;;;;;;;5027004;28;20101;-77
2022/12/22 15:33:01;;;;;;;9.40;3.97;;;;;;;;;;5014563;28;20513;-78
2022/12/22 15:35:27;;;;;;;11.25;4.38;;;;;;;;;;5029316;28;20474;-78
2022/12/22 15:37:53;;;;;;;10.90;4.05;;;;;;;;;;5005755;28;20107;-78
2022/12/22 15:40:20;;;;;;;8.02;3.58;;;;;;;;;;5016805;28;20050;-78
2022/12/22 15:42:46;;;;;;;10.57;4.63;;;;;;;;;;5020707;28;20050;-76
2022/12/22 15:45:13;;;;;;;9.18;3.70;;;;;;;;;;5027755;28;20046;-78
2022/12/22 15:47:40;;;;;;;9.45;3.92;;;;;;;;;;5015100;28;20457;-78
2022/12/22 15:50:07;;;;;;;12.75;3.75;;;;;;;;;;5032804;28;20057;-78
2022/12/22 15:52:33;;;;;;;9.65;3.88;;;;;;;;;;5013634;28;20504;-78
2022/12/22 15:54:59;;;;;;;8.90;4.13;;;;;;;;;;5014808;28;20072;-78
2022/12/22 15:57:25;;;;;;;9.63;4.47;;;;;;;;;;5014666;28;20180;-78
2022/12/22 15:59:51;;;;;;;9.05;4.18;;;;;;;;;;5032850;28;20493;-78
2022/12/22 16:02:17;;;;;;;9.27;5.13;;;;;;;;;;5020512;28;20041;-78
2022/12/22 16:04:43;;;;;;;14.52;7.28;;;;;;;;;;5019531;28;20037;-78
2022/12/22 16:07:13;;;;;;;15.90;9.75;;;;;;;;;;5042503;28;20086;-78
2022/12/22 16:09:43;;;;;;;20.98;11.35;;;;;;;;;;5025904;28;20047;-78
2022/12/22 16:12:14;;;;;;;25.52;13.98;;;;;;;;;;5032648;28;20397;-78
2022/12/22 16:14:41;;;;;;;29.10;15.20;;;;;;;;;;5014707;28;20111;-78
2022/12/22 16:17:13;;;;;;;30.02;15.82;;;;;;;;;;5033193;28;20517;-78
2022/12/22 16:19:39;;;;;;;29.23;16.00;;;;;;;;;;5032813;28;20486;-78
2022/12/22 16:22:05;;;;;;;26.27;15.85;;;;;;;;;;5032260;28;20052;-78
2022/12/22 16:24:33;;;;;;;24.33;14.48;;;;;;;;;;5031368;28;20042;-78
2022/12/22 16:26:59;;;;;;;27.83;15.18;;;;;;;;;;5005582;28;20055;-78
2022/12/22 16:29:26;;;;;;;26.40;15.15;;;;;;;;;;5023175;28;20038;-78
2022/12/22 16:31:52;;;;;;;28.20;15.07;;;;;;;;;;5011527;28;20362;-78
2022/12/22 16:34:18;;;;;;;25.67;15.52;;;;;;;;;;5022967;28;20052;-78
2022/12/22 16:36:44;;;;;;;26.55;17.13;;;;;;;;;;5035892;28;20405;-78
2022/12/22 16:39:10;;;;;;;28.30;16.58;;;;;;;;;;5014166;28;20554;-78
2022/12/22 16:41:36;;;;;;;31.10;16.90;;;;;;;;;;5011724;28;20049;-78
2022/12/22 16:44:06;;;;;;;25.63;14.75;;;;;;;;;;5029682;28;20129;-78
2022/12/22 16:46:35;;;;;;;25.58;14.98;;;;;;;;;;5014683;28;20037;-78
2022/12/22 16:49:01;;;;;;;29.63;18.77;;;;;;;;;;5021586;28;20505;-78
2022/12/22 16:51:29;;;;;;;27.10;17.48;;;;;;;;;;5018733;28;20060;-78
2022/12/22 16:53:55;;;;;;;26.75;15.93;;;;;;;;;;5031731;28;20076;-78
2022/12/22 16:56:23;;;;;;;27.27;16.13;;;;;;;;;;5017460;28;20041;-78
2022/12/22 16:58:50;;;;;;;27.83;15.77;;;;;;;;;;5017768;28;20114;-78
2022/12/22 17:01:36;;;;;;;27.33;16.55;;;;;;;;;;5036130;28;20164;-77
2022/12/22 17:04:04;;;;;;;26.55;15.65;;;;;;;;;;5034813;28;20094;-78
2022/12/22 17:06:30;;;;;;;26.95;16.35;;;;;;;;;;5035536;28;20079;-77
2022/12/22 17:08:56;;;;;;;27.50;16.65;;;;;;;;;;5035021;28;20045;-77
2022/12/22 17:11:23;;;;;;;31.10;18.00;;;;;;;;;;5035295;28;20481;-77
2022/12/22 17:13:51;;;;;;;27.73;16.25;;;;;;;;;;5024219;28;20053;-77
2022/12/22 17:16:18;;;;;;;30.17;17.73;;;;;;;;;;5000862;28;20524;-77
2022/12/22 17:18:44;;;;;;;31.15;17.88;;;;;;;;;;5033552;28;20055;-77
2022/12/22 17:21:10;;;;;;;28.88;16.98;;;;;;;;;;5031935;28;20034;-77
2022/12/22 17:23:44;;;;;;;30.15;18.10;;;;;;;;;;5033918;28;20038;-77
2022/12/22 17:26:13;;;;;;;33.17;18.17;;;;;;;;;;5017113;28;20041;-78
2022/12/22 17:28:39;;;;;;;30.45;17.58;;;;;;;;;;5025026;28;20033;-77
2022/12/22 17:31:05;;;;;;;33.00;18.10;;;;;;;;;;5034685;28;20120;-77
2022/12/22 17:33:31;;;;;;;31.95;17.77;;;;;;;;;;5019250;28;20046;-77
2022/12/22 17:35:58;;;;;;;36.53;20.30;;;;;;;;;;5015860;28;20504;-77
2022/12/22 17:38:26;;;;;;;32.33;18.90;;;;;;;;;;5035163;28;20037;-77
2022/12/22 17:40:53;;;;;;;39.78;22.52;;;;;;;;;;5034902;28;20048;-78
2022/12/22 17:43:20;;;;;;;39.63;23.20;;;;;;;;;;5025936;28;20038;-78
2022/12/22 17:45:46;;;;;;;37.38;22.58;;;;;;;;;;5029009;28;20050;-78
2022/12/22 17:48:16;;;;;;;39.90;22.42;;;;;;;;;;5025143;28;20090;-77
2022/12/22 17:50:43;;;;;;;43.42;21.52;;;;;;;;;;5025194;28;20052;-78
2022/12/22 17:53:11;;;;;;;48.97;25.83;;;;;;;;;;5027124;28;20045;-78
2022/12/22 17:55:38;;;;;;;44.38;22.73;;;;;;;;;;5026122;28;20490;-78
2022/12/22 17:58:04;;;;;;;37.92;21.85;;;;;;;;;;5021324;28;20052;-79
2022/12/22 18:00:30;;;;;;;39.38;22.35;;;;;;;;;;5032752;28;20061;-79
2022/12/22 18:02:57;;;;;;;43.42;24.10;;;;;;;;;;5023753;28;20045;-78
2022/12/22 18:05:25;;;;;;;42.72;22.27;;;;;;;;;;5027323;28;20092;-78
2022/12/22 18:07:57;;;;;;;44.88;22.38;;;;;;;;;;5025446;28;20480;-78
2022/12/22 18:10:28;;;;;;;42.13;23.58;;;;;;;;;;5033461;28;20045;-76
2022/12/22 18:12:54;;;;;;;45.00;22.95;;;;;;;;;;5028460;28;20045;-77
2022/12/22 18:15:21;;;;;;;50.28;24.08;;;;;;;;;;5023271;28;20505;-78